sensor_id;sensor_type;location;lat;lon;timestamp;P1;durP1;ratioP1;P2;durP2;ratioP2
37288;SDS011;23174;49.462;11.000;2022-11-15T00:00:13;4.60;;;4.20;;
37288;SDS011;23174;49.462;11.000;2022-11-15T00:02:14;5.03;;;4.45;;
37288;SDS011;23174;49.462;11.000;2022-11-15T00:04:15;6.32;;;4.22;;
37288;SDS011;23174;49.462;11.000;2022-11-15T00:06:15;6.28;;;4.40;;
37288;SDS011;23174;49.462;11.000;2022-11-15T00:08:16;5.05;;;4.40;;
37288;SDS011;23174;49.462;11.000;2022-11-15T00:10:17;4.35;;;4.00;;
37288;SDS011;23174;49.462;11.000;2022-11-15T00:12:17;8.00;;;4.03;;
37288;SDS011;23174;49.462;11.000;2022-11-15T00:14:18;4.47;;;4.10;;
37288;SDS011;23174;49.462;11.000;2022-11-15T00:16:18;4.40;;;3.97;;
37288;SDS011;23174;49.462;11.000;2022-11-15T00:18:19;4.85;;;4.28;;
37288;SDS011;23174;49.462;11.000;2022-11-15T00:20:20;5.20;;;4.18;;
37288;SDS011;23174;49.462;11.000;2022-11-15T00:22:20;4.72;;;4.07;;
37288;SDS011;23174;49.462;11.000;2022-11-15T00:24:21;5.18;;;4.68;;
37288;SDS011;23174;49.462;11.000;2022-11-15T00:26:22;4.10;;;3.78;;
37288;SDS011;23174;49.462;11.000;2022-11-15T00:28:23;5.75;;;4.93;;
37288;SDS011;23174;49.462;11.000;2022-11-15T00:30:24;5.32;;;4.93;;
37288;SDS011;23174;49.462;11.000;2022-11-15T00:32:25;5.30;;;4.80;;
37288;SDS011;23174;49.462;11.000;2022-11-15T00:34:25;4.82;;;4.43;;
37288;SDS011;23174;49.462;11.000;2022-11-15T00:36:26;4.80;;;4.40;;
37288;SDS011;23174;49.462;11.000;2022-11-15T00:38:30;4.68;;;4.32;;
37288;SDS011;23174;49.462;11.000;2022-11-15T00:40:32;5.60;;;4.32;;
37288;SDS011;23174;49.462;11.000;2022-11-15T00:42:32;4.60;;;4.13;;
37288;SDS011;23174;49.462;11.000;2022-11-15T00:44:33;4.43;;;3.95;;
37288;SDS011;23174;49.462;11.000;2022-11-15T00:46:33;4.82;;;4.43;;
37288;SDS011;23174;49.462;11.000;2022-11-15T00:48:34;6.45;;;4.25;;
37288;SDS011;23174;49.462;11.000;2022-11-15T00:50:35;4.93;;;4.15;;
37288;SDS011;23174;49.462;11.000;2022-11-15T00:52:35;4.40;;;4.00;;
37288;SDS011;23174;49.462;11.000;2022-11-15T00:54:36;5.05;;;3.90;;
37288;SDS011;23174;49.462;11.000;2022-11-15T00:56:36;4.85;;;4.43;;
37288;SDS011;23174;49.462;11.000;2022-11-15T00:58:37;6.85;;;5.10;;
37288;SDS011;23174;49.462;11.000;2022-11-15T01:00:37;4.78;;;4.38;;
37288;SDS011;23174;49.462;11.000;2022-11-15T01:02:38;5.45;;;4.47;;
37288;SDS011;23174;49.462;11.000;2022-11-15T01:04:39;4.30;;;3.90;;
37288;SDS011;23174;49.462;11.000;2022-11-15T01:06:39;4.80;;;4.40;;
37288;SDS011;23174;49.462;11.000;2022-11-15T01:08:40;5.97;;;4.22;;
37288;SDS011;23174;49.462;11.000;2022-11-15T01:10:41;5.18;;;4.68;;
37288;SDS011;23174;49.462;11.000;2022-11-15T01:12:42;5.07;;;4.55;;
37288;SDS011;23174;49.462;11.000;2022-11-15T01:14:42;4.85;;;4.38;;
37288;SDS011;23174;49.462;11.000;2022-11-15T01:16:43;5.28;;;4.32;;
37288;SDS011;23174;49.462;11.000;2022-11-15T01:18:44;5.05;;;4.65;;
37288;SDS011;23174;49.462;11.000;2022-11-15T01:20:45;4.30;;;4.00;;
37288;SDS011;23174;49.462;11.000;2022-11-15T01:22:46;5.50;;;4.32;;
37288;SDS011;23174;49.462;11.000;2022-11-15T01:24:46;5.57;;;4.80;;
37288;SDS011;23174;49.462;11.000;2022-11-15T01:26:49;5.32;;;4.55;;
37288;SDS011;23174;49.462;11.000;2022-11-15T01:28:49;5.07;;;4.63;;
37288;SDS011;23174;49.462;11.000;2022-11-15T01:30:50;5.32;;;4.82;;
37288;SDS011;23174;49.462;11.000;2022-11-15T01:32:51;5.57;;;4.40;;
37288;SDS011;23174;49.462;11.000;2022-11-15T01:34:51;6.78;;;4.20;;
37288;SDS011;23174;49.462;11.000;2022-11-15T01:36:52;5.22;;;4.40;;
37288;SDS011;23174;49.462;11.000;2022-11-15T01:38:53;4.72;;;4.32;;
37288;SDS011;23174;49.462;11.000;2022-11-15T01:40:55;5.00;;;4.35;;
37288;SDS011;23174;49.462;11.000;2022-11-15T01:42:55;6.70;;;4.93;;
37288;SDS011;23174;49.462;11.000;2022-11-15T01:44:56;5.13;;;4.63;;
37288;SDS011;23174;49.462;11.000;2022-11-15T01:46:58;6.32;;;4.30;;
37288;SDS011;23174;49.462;11.000;2022-11-15T01:49:02;5.95;;;4.38;;
37288;SDS011;23174;49.462;11.000;2022-11-15T01:51:11;4.85;;;4.45;;
37288;SDS011;23174;49.462;11.000;2022-11-15T01:53:15;8.00;;;4.72;;
37288;SDS011;23174;49.462;11.000;2022-11-15T01:55:20;5.85;;;4.00;;
37288;SDS011;23174;49.462;11.000;2022-11-15T01:57:24;5.45;;;3.97;;
37288;SDS011;23174;49.462;11.000;2022-11-15T01:59:25;6.07;;;4.53;;
37288;SDS011;23174;49.462;11.000;2022-11-15T02:01:26;5.25;;;4.75;;
37288;SDS011;23174;49.462;11.000;2022-11-15T02:03:33;5.00;;;4.60;;
37288;SDS011;23174;49.462;11.000;2022-11-15T02:07:38;6.88;;;5.13;;
37288;SDS011;23174;49.462;11.000;2022-11-15T02:09:39;5.43;;;4.72;;
37288;SDS011;23174;49.462;11.000;2022-11-15T02:11:40;4.72;;;4.32;;
37288;SDS011;23174;49.462;11.000;2022-11-15T02:13:41;4.82;;;4.43;;
37288;SDS011;23174;49.462;11.000;2022-11-15T02:15:47;6.95;;;4.65;;
37288;SDS011;23174;49.462;11.000;2022-11-15T02:18:14;5.00;;;4.60;;
37288;SDS011;23174;49.462;11.000;2022-11-15T02:20:35;5.82;;;4.57;;
37288;SDS011;23174;49.462;11.000;2022-11-15T02:25:00;4.68;;;4.30;;
37288;SDS011;23174;49.462;11.000;2022-11-15T02:31:56;5.00;;;4.43;;
37288;SDS011;23174;49.462;11.000;2022-11-15T02:34:12;5.03;;;4.63;;
37288;SDS011;23174;49.462;11.000;2022-11-15T02:38:59;5.20;;;4.70;;
37288;SDS011;23174;49.462;11.000;2022-11-15T02:41:20;4.93;;;4.50;;
37288;SDS011;23174;49.462;11.000;2022-11-15T02:43:40;5.00;;;4.60;;
37288;SDS011;23174;49.462;11.000;2022-11-15T02:46:02;4.68;;;4.28;;
37288;SDS011;23174;49.462;11.000;2022-11-15T02:48:44;5.72;;;4.47;;
37288;SDS011;23174;49.462;11.000;2022-11-15T02:50:45;4.80;;;4.30;;
37288;SDS011;23174;49.462;11.000;2022-11-15T02:52:50;5.63;;;4.68;;
37288;SDS011;23174;49.462;11.000;2022-11-15T02:57:00;4.95;;;4.55;;
37288;SDS011;23174;49.462;11.000;2022-11-15T02:59:13;5.05;;;4.47;;
37288;SDS011;23174;49.462;11.000;2022-11-15T03:06:03;5.20;;;4.60;;
37288;SDS011;23174;49.462;11.000;2022-11-15T03:10:36;4.78;;;4.38;;
37288;SDS011;23174;49.462;11.000;2022-11-15T03:12:59;4.50;;;4.10;;
37288;SDS011;23174;49.462;11.000;2022-11-15T03:15:31;6.47;;;4.63;;
37288;SDS011;23174;49.462;11.000;2022-11-15T03:17:48;7.03;;;4.85;;
37288;SDS011;23174;49.462;11.000;2022-11-15T03:19:53;5.10;;;4.70;;
37288;SDS011;23174;49.462;11.000;2022-11-15T03:22:06;5.72;;;5.22;;
37288;SDS011;23174;49.462;11.000;2022-11-15T03:24:11;4.68;;;4.28;;
37288;SDS011;23174;49.462;11.000;2022-11-15T03:26:14;6.97;;;4.45;;
37288;SDS011;23174;49.462;11.000;2022-11-15T03:28:38;4.72;;;4.20;;
37288;SDS011;23174;49.462;11.000;2022-11-15T03:30:47;4.70;;;4.10;;
37288;SDS011;23174;49.462;11.000;2022-11-15T03:32:51;5.38;;;4.90;;
37288;SDS011;23174;49.462;11.000;2022-11-15T03:35:01;4.95;;;4.55;;
37288;SDS011;23174;49.462;11.000;2022-11-15T03:37:03;5.90;;;4.80;;
37288;SDS011;23174;49.462;11.000;2022-11-15T03:39:06;5.28;;;4.78;;
37288;SDS011;23174;49.462;11.000;2022-11-15T03:41:10;8.35;;;4.82;;
37288;SDS011;23174;49.462;11.000;2022-11-15T03:43:23;5.28;;;4.78;;
37288;SDS011;23174;49.462;11.000;2022-11-15T03:45:29;5.60;;;5.10;;
37288;SDS011;23174;49.462;11.000;2022-11-15T03:47:36;7.18;;;5.70;;
37288;SDS011;23174;49.462;11.000;2022-11-15T03:49:42;5.75;;;5.25;;
37288;SDS011;23174;49.462;11.000;2022-11-15T03:51:49;5.65;;;5.15;;
37288;SDS011;23174;49.462;11.000;2022-11-15T03:53:50;7.38;;;5.95;;
37288;SDS011;23174;49.462;11.000;2022-11-15T03:55:51;4.88;;;4.47;;
37288;SDS011;23174;49.462;11.000;2022-11-15T03:57:52;4.95;;;4.55;;
37288;SDS011;23174;49.462;11.000;2022-11-15T03:59:57;5.60;;;4.88;;
37288;SDS011;23174;49.462;11.000;2022-11-15T04:01:58;4.40;;;4.00;;
37288;SDS011;23174;49.462;11.000;2022-11-15T04:03:58;4.78;;;4.43;;
37288;SDS011;23174;49.462;11.000;2022-11-15T04:05:59;4.75;;;4.35;;
37288;SDS011;23174;49.462;11.000;2022-11-15T04:07:59;5.18;;;4.68;;
37288;SDS011;23174;49.462;11.000;2022-11-15T04:10:00;4.82;;;4.38;;
37288;SDS011;23174;49.462;11.000;2022-11-15T04:12:04;5.22;;;4.78;;
37288;SDS011;23174;49.462;11.000;2022-11-15T04:14:04;5.20;;;4.80;;
37288;SDS011;23174;49.462;11.000;2022-11-15T04:16:05;5.30;;;4.80;;
37288;SDS011;23174;49.462;11.000;2022-11-15T04:18:05;8.32;;;4.55;;
37288;SDS011;23174;49.462;11.000;2022-11-15T04:20:07;4.90;;;4.50;;
37288;SDS011;23174;49.462;11.000;2022-11-15T04:22:34;6.85;;;4.95;;
37288;SDS011;23174;49.462;11.000;2022-11-15T04:24:53;4.82;;;4.43;;
37288;SDS011;23174;49.462;11.000;2022-11-15T04:26:54;7.35;;;4.35;;
37288;SDS011;23174;49.462;11.000;2022-11-15T04:28:54;5.90;;;4.82;;
37288;SDS011;23174;49.462;11.000;2022-11-15T04:31:13;4.93;;;4.53;;
37288;SDS011;23174;49.462;11.000;2022-11-15T04:33:14;5.38;;;4.88;;
37288;SDS011;23174;49.462;11.000;2022-11-15T04:35:15;5.15;;;4.75;;
37288;SDS011;23174;49.462;11.000;2022-11-15T04:37:15;4.72;;;4.35;;
37288;SDS011;23174;49.462;11.000;2022-11-15T04:39:16;5.28;;;4.70;;
37288;SDS011;23174;49.462;11.000;2022-11-15T04:41:17;5.38;;;4.88;;
37288;SDS011;23174;49.462;11.000;2022-11-15T04:43:17;4.90;;;3.97;;
37288;SDS011;23174;49.462;11.000;2022-11-15T04:45:18;6.03;;;4.70;;
37288;SDS011;23174;49.462;11.000;2022-11-15T04:47:18;4.78;;;4.38;;
37288;SDS011;23174;49.462;11.000;2022-11-15T04:49:19;4.57;;;4.22;;
37288;SDS011;23174;49.462;11.000;2022-11-15T04:51:20;4.38;;;3.97;;
37288;SDS011;23174;49.462;11.000;2022-11-15T04:53:20;4.82;;;4.43;;
37288;SDS011;23174;49.462;11.000;2022-11-15T04:55:21;4.65;;;4.25;;
37288;SDS011;23174;49.462;11.000;2022-11-15T04:57:22;4.90;;;4.50;;
37288;SDS011;23174;49.462;11.000;2022-11-15T04:59:22;4.38;;;4.07;;
37288;SDS011;23174;49.462;11.000;2022-11-15T05:01:23;3.47;;;2.00;;
37288;SDS011;23174;49.462;11.000;2022-11-15T05:03:23;3.38;;;3.13;;
37288;SDS011;23174;49.462;11.000;2022-11-15T05:05:59;4.20;;;2.90;;
37288;SDS011;23174;49.462;11.000;2022-11-15T05:08:00;3.92;;;3.13;;
37288;SDS011;23174;49.462;11.000;2022-11-15T05:10:00;6.03;;;3.00;;
37288;SDS011;23174;49.462;11.000;2022-11-15T05:12:01;5.43;;;3.45;;
37288;SDS011;23174;49.462;11.000;2022-11-15T05:14:02;3.90;;;3.60;;
37288;SDS011;23174;49.462;11.000;2022-11-15T05:16:02;8.00;;;3.97;;
37288;SDS011;23174;49.462;11.000;2022-11-15T05:18:03;5.47;;;3.78;;
37288;SDS011;23174;49.462;11.000;2022-11-15T05:20:04;3.25;;;2.95;;
37288;SDS011;23174;49.462;11.000;2022-11-15T05:22:05;4.00;;;3.33;;
37288;SDS011;23174;49.462;11.000;2022-11-15T05:24:05;3.35;;;2.67;;
37288;SDS011;23174;49.462;11.000;2022-11-15T05:26:06;4.70;;;3.47;;
37288;SDS011;23174;49.462;11.000;2022-11-15T05:28:07;4.72;;;4.22;;
37288;SDS011;23174;49.462;11.000;2022-11-15T05:30:08;4.07;;;3.70;;
37288;SDS011;23174;49.462;11.000;2022-11-15T05:32:09;4.38;;;3.92;;
37288;SDS011;23174;49.462;11.000;2022-11-15T05:34:12;4.80;;;3.45;;
37288;SDS011;23174;49.462;11.000;2022-11-15T05:36:21;3.83;;;3.50;;
37288;SDS011;23174;49.462;11.000;2022-11-15T05:38:28;4.03;;;3.63;;
37288;SDS011;23174;49.462;11.000;2022-11-15T05:40:29;3.08;;;2.70;;
37288;SDS011;23174;49.462;11.000;2022-11-15T05:42:31;7.38;;;3.38;;
37288;SDS011;23174;49.462;11.000;2022-11-15T05:44:31;0.98;;;0.98;;
37288;SDS011;23174;49.462;11.000;2022-11-15T05:46:33;4.13;;;2.17;;
37288;SDS011;23174;49.462;11.000;2022-11-15T05:48:35;2.70;;;2.47;;
37288;SDS011;23174;49.462;11.000;2022-11-15T05:50:38;3.42;;;3.10;;
37288;SDS011;23174;49.462;11.000;2022-11-15T05:52:43;2.85;;;2.60;;
37288;SDS011;23174;49.462;11.000;2022-11-15T05:54:45;5.18;;;3.90;;
37288;SDS011;23174;49.462;11.000;2022-11-15T05:56:46;2.60;;;2.40;;
37288;SDS011;23174;49.462;11.000;2022-11-15T05:58:47;5.47;;;3.17;;
37288;SDS011;23174;49.462;11.000;2022-11-15T06:00:47;3.47;;;2.95;;
37288;SDS011;23174;49.462;11.000;2022-11-15T06:02:48;4.80;;;2.92;;
37288;SDS011;23174;49.462;11.000;2022-11-15T06:04:49;5.50;;;3.03;;
37288;SDS011;23174;49.462;11.000;2022-11-15T06:06:49;4.68;;;3.22;;
37288;SDS011;23174;49.462;11.000;2022-11-15T06:08:50;4.25;;;3.30;;
37288;SDS011;23174;49.462;11.000;2022-11-15T06:10:50;6.03;;;3.83;;
37288;SDS011;23174;49.462;11.000;2022-11-15T06:12:57;4.88;;;2.60;;
37288;SDS011;23174;49.462;11.000;2022-11-15T06:14:59;5.68;;;4.20;;
37288;SDS011;23174;49.462;11.000;2022-11-15T06:16:59;4.85;;;4.25;;
37288;SDS011;23174;49.462;11.000;2022-11-15T06:19:00;5.35;;;3.88;;
37288;SDS011;23174;49.462;11.000;2022-11-15T06:21:01;6.15;;;3.78;;
37288;SDS011;23174;49.462;11.000;2022-11-15T06:23:02;4.85;;;3.88;;
37288;SDS011;23174;49.462;11.000;2022-11-15T06:25:04;4.35;;;2.80;;
37288;SDS011;23174;49.462;11.000;2022-11-15T06:27:05;8.30;;;3.47;;
37288;SDS011;23174;49.462;11.000;2022-11-15T06:29:05;4.53;;;3.20;;
37288;SDS011;23174;49.462;11.000;2022-11-15T06:31:07;3.70;;;2.65;;
37288;SDS011;23174;49.462;11.000;2022-11-15T06:33:10;2.80;;;2.47;;
37288;SDS011;23174;49.462;11.000;2022-11-15T06:35:11;2.65;;;2.45;;
37288;SDS011;23174;49.462;11.000;2022-11-15T06:37:12;2.40;;;1.83;;
37288;SDS011;23174;49.462;11.000;2022-11-15T06:39:12;4.28;;;2.70;;
37288;SDS011;23174;49.462;11.000;2022-11-15T06:41:13;3.42;;;3.10;;
37288;SDS011;23174;49.462;11.000;2022-11-15T06:43:14;4.32;;;2.90;;
37288;SDS011;23174;49.462;11.000;2022-11-15T06:45:15;4.13;;;3.25;;
37288;SDS011;23174;49.462;11.000;2022-11-15T06:47:15;4.30;;;3.00;;
37288;SDS011;23174;49.462;11.000;2022-11-15T06:49:16;4.25;;;2.88;;
37288;SDS011;23174;49.462;11.000;2022-11-15T06:51:16;5.90;;;3.17;;
37288;SDS011;23174;49.462;11.000;2022-11-15T06:53:17;1.65;;;1.55;;
37288;SDS011;23174;49.462;11.000;2022-11-15T06:55:18;3.80;;;2.63;;
37288;SDS011;23174;49.462;11.000;2022-11-15T06:57:18;9.13;;;3.55;;
37288;SDS011;23174;49.462;11.000;2022-11-15T06:59:19;7.00;;;2.10;;
37288;SDS011;23174;49.462;11.000;2022-11-15T07:01:19;4.57;;;2.22;;
37288;SDS011;23174;49.462;11.000;2022-11-15T07:03:20;2.85;;;2.30;;
37288;SDS011;23174;49.462;11.000;2022-11-15T07:05:21;3.45;;;3.05;;
37288;SDS011;23174;49.462;11.000;2022-11-15T07:07:21;2.10;;;1.80;;
37288;SDS011;23174;49.462;11.000;2022-11-15T07:09:22;0.73;;;0.70;;
37288;SDS011;23174;49.462;11.000;2022-11-15T07:11:22;3.97;;;2.28;;
37288;SDS011;23174;49.462;11.000;2022-11-15T07:13:26;7.88;;;3.17;;
37288;SDS011;23174;49.462;11.000;2022-11-15T07:15:27;5.75;;;3.53;;
37288;SDS011;23174;49.462;11.000;2022-11-15T07:17:28;0.43;;;0.43;;
37288;SDS011;23174;49.462;11.000;2022-11-15T07:19:29;4.28;;;0.75;;
37288;SDS011;23174;49.462;11.000;2022-11-15T07:21:29;0.45;;;0.45;;
37288;SDS011;23174;49.462;11.000;2022-11-15T07:23:30;0.38;;;0.38;;
37288;SDS011;23174;49.462;11.000;2022-11-15T07:25:31;0.60;;;0.60;;
37288;SDS011;23174;49.462;11.000;2022-11-15T07:27:31;0.20;;;0.20;;
37288;SDS011;23174;49.462;11.000;2022-11-15T07:29:32;0.30;;;0.30;;
37288;SDS011;23174;49.462;11.000;2022-11-15T07:31:32;0.35;;;0.35;;
37288;SDS011;23174;49.462;11.000;2022-11-15T07:33:33;8.48;;;0.73;;
37288;SDS011;23174;49.462;11.000;2022-11-15T07:35:34;0.55;;;0.55;;
37288;SDS011;23174;49.462;11.000;2022-11-15T07:37:35;0.70;;;0.70;;
37288;SDS011;23174;49.462;11.000;2022-11-15T07:39:35;0.45;;;0.45;;
37288;SDS011;23174;49.462;11.000;2022-11-15T07:41:36;0.35;;;0.35;;
37288;SDS011;23174;49.462;11.000;2022-11-15T07:43:37;0.20;;;0.20;;
37288;SDS011;23174;49.462;11.000;2022-11-15T07:45:44;1.23;;;1.13;;
37288;SDS011;23174;49.462;11.000;2022-11-15T07:47:45;0.45;;;0.45;;
37288;SDS011;23174;49.462;11.000;2022-11-15T07:49:46;1.00;;;0.88;;
37288;SDS011;23174;49.462;11.000;2022-11-15T07:51:47;1.27;;;1.05;;
37288;SDS011;23174;49.462;11.000;2022-11-15T07:53:48;0.40;;;0.40;;
37288;SDS011;23174;49.462;11.000;2022-11-15T07:55:48;0.40;;;0.40;;
37288;SDS011;23174;49.462;11.000;2022-11-15T07:57:49;6.75;;;0.60;;
37288;SDS011;23174;49.462;11.000;2022-11-15T07:59:49;0.40;;;0.22;;
37288;SDS011;23174;49.462;11.000;2022-11-15T08:01:50;0.32;;;0.32;;
37288;SDS011;23174;49.462;11.000;2022-11-15T08:03:50;0.32;;;0.32;;
37288;SDS011;23174;49.462;11.000;2022-11-15T08:05:51;0.10;;;0.10;;
37288;SDS011;23174;49.462;11.000;2022-11-15T08:07:54;2.97;;;0.90;;
37288;SDS011;23174;49.462;11.000;2022-11-15T08:09:55;0.80;;;0.80;;
37288;SDS011;23174;49.462;11.000;2022-11-15T08:11:56;1.05;;;0.95;;
37288;SDS011;23174;49.462;11.000;2022-11-15T08:13:57;0.77;;;0.77;;
37288;SDS011;23174;49.462;11.000;2022-11-15T08:15:58;0.38;;;0.35;;
37288;SDS011;23174;49.462;11.000;2022-11-15T08:18:01;1.13;;;1.02;;
37288;SDS011;23174;49.462;11.000;2022-11-15T08:20:04;0.60;;;0.60;;
37288;SDS011;23174;49.462;11.000;2022-11-15T08:22:05;1.27;;;0.68;;
37288;SDS011;23174;49.462;11.000;2022-11-15T08:24:07;0.73;;;0.73;;
37288;SDS011;23174;49.462;11.000;2022-11-15T08:26:09;0.75;;;0.40;;
37288;SDS011;23174;49.462;11.000;2022-11-15T08:28:10;1.38;;;1.02;;
37288;SDS011;23174;49.462;11.000;2022-11-15T08:30:11;0.63;;;0.63;;
37288;SDS011;23174;49.462;11.000;2022-11-15T08:32:12;1.38;;;0.80;;
37288;SDS011;23174;49.462;11.000;2022-11-15T08:34:12;2.30;;;0.70;;
37288;SDS011;23174;49.462;11.000;2022-11-15T08:36:14;0.38;;;0.38;;
37288;SDS011;23174;49.462;11.000;2022-11-15T08:38:16;0.40;;;0.40;;
37288;SDS011;23174;49.462;11.000;2022-11-15T08:40:17;0.50;;;0.50;;
37288;SDS011;23174;49.462;11.000;2022-11-15T08:42:18;0.30;;;0.30;;
37288;SDS011;23174;49.462;11.000;2022-11-15T08:44:19;0.50;;;0.50;;
37288;SDS011;23174;49.462;11.000;2022-11-15T08:46:19;1.05;;;1.05;;
37288;SDS011;23174;49.462;11.000;2022-11-15T08:48:20;1.23;;;1.08;;
37288;SDS011;23174;49.462;11.000;2022-11-15T08:50:20;3.00;;;2.25;;
37288;SDS011;23174;49.462;11.000;2022-11-15T08:52:21;0.25;;;0.25;;
37288;SDS011;23174;49.462;11.000;2022-11-15T08:54:22;0.93;;;0.88;;
37288;SDS011;23174;49.462;11.000;2022-11-15T08:56:22;0.45;;;0.45;;
37288;SDS011;23174;49.462;11.000;2022-11-15T08:58:23;0.68;;;0.68;;
37288;SDS011;23174;49.462;11.000;2022-11-15T09:00:23;0.75;;;0.65;;
37288;SDS011;23174;49.462;11.000;2022-11-15T09:02:24;0.40;;;0.40;;
37288;SDS011;23174;49.462;11.000;2022-11-15T09:04:24;0.35;;;0.35;;
37288;SDS011;23174;49.462;11.000;2022-11-15T09:06:25;1.20;;;0.95;;
37288;SDS011;23174;49.462;11.000;2022-11-15T09:08:29;1.67;;;1.50;;
37288;SDS011;23174;49.462;11.000;2022-11-15T09:10:31;0.40;;;0.40;;
37288;SDS011;23174;49.462;11.000;2022-11-15T09:12:31;0.13;;;0.13;;
37288;SDS011;23174;49.462;11.000;2022-11-15T09:14:32;0.20;;;0.17;;
37288;SDS011;23174;49.462;11.000;2022-11-15T09:16:33;0.85;;;0.85;;
37288;SDS011;23174;49.462;11.000;2022-11-15T09:18:34;0.68;;;0.52;;
37288;SDS011;23174;49.462;11.000;2022-11-15T09:20:34;0.85;;;0.85;;
37288;SDS011;23174;49.462;11.000;2022-11-15T09:22:35;0.57;;;0.32;;
37288;SDS011;23174;49.462;11.000;2022-11-15T09:24:36;1.15;;;1.08;;
37288;SDS011;23174;49.462;11.000;2022-11-15T09:26:37;0.60;;;0.60;;
37288;SDS011;23174;49.462;11.000;2022-11-15T09:28:37;1.10;;;1.00;;
37288;SDS011;23174;49.462;11.000;2022-11-15T09:30:41;0.70;;;0.70;;
37288;SDS011;23174;49.462;11.000;2022-11-15T09:32:42;5.95;;;4.25;;
37288;SDS011;23174;49.462;11.000;2022-11-15T09:34:42;5.15;;;4.07;;
37288;SDS011;23174;49.462;11.000;2022-11-15T09:36:43;4.43;;;4.00;;
37288;SDS011;23174;49.462;11.000;2022-11-15T09:38:43;4.40;;;4.00;;
37288;SDS011;23174;49.462;11.000;2022-11-15T09:40:44;4.30;;;3.90;;
37288;SDS011;23174;49.462;11.000;2022-11-15T09:49:36;5.35;;;4.15;;
37288;SDS011;23174;49.462;11.000;2022-11-15T09:51:38;5.88;;;3.97;;
37288;SDS011;23174;49.462;11.000;2022-11-15T10:00:40;5.07;;;4.00;;
37288;SDS011;23174;49.462;11.000;2022-11-15T10:05:22;4.28;;;3.70;;
37288;SDS011;23174;49.462;11.000;2022-11-15T10:09:36;5.95;;;4.20;;
37288;SDS011;23174;49.462;11.000;2022-11-15T10:11:42;7.85;;;4.53;;
37288;SDS011;23174;49.462;11.000;2022-11-15T10:13:44;8.07;;;3.97;;
37288;SDS011;23174;49.462;11.000;2022-11-15T10:15:46;4.85;;;3.95;;
37288;SDS011;23174;49.462;11.000;2022-11-15T10:18:05;3.83;;;3.50;;
37288;SDS011;23174;49.462;11.000;2022-11-15T10:22:28;4.43;;;4.03;;
37288;SDS011;23174;49.462;11.000;2022-11-15T10:24:40;4.03;;;3.63;;
37288;SDS011;23174;49.462;11.000;2022-11-15T10:26:46;3.88;;;3.58;;
37288;SDS011;23174;49.462;11.000;2022-11-15T10:28:47;4.55;;;3.38;;
37288;SDS011;23174;49.462;11.000;2022-11-15T10:30:49;8.55;;;4.30;;
37288;SDS011;23174;49.462;11.000;2022-11-15T10:32:54;3.47;;;3.17;;
37288;SDS011;23174;49.462;11.000;2022-11-15T10:34:55;5.55;;;3.30;;
37288;SDS011;23174;49.462;11.000;2022-11-15T10:36:56;7.65;;;3.55;;
37288;SDS011;23174;49.462;11.000;2022-11-15T10:39:01;7.72;;;3.28;;
37288;SDS011;23174;49.462;11.000;2022-11-15T10:41:07;3.10;;;2.88;;
37288;SDS011;23174;49.462;11.000;2022-11-15T10:43:15;4.00;;;2.70;;
37288;SDS011;23174;49.462;11.000;2022-11-15T10:45:24;3.30;;;3.00;;
37288;SDS011;23174;49.462;11.000;2022-11-15T10:47:28;4.93;;;2.95;;
37288;SDS011;23174;49.462;11.000;2022-11-15T10:49:31;3.42;;;2.95;;
37288;SDS011;23174;49.462;11.000;2022-11-15T10:51:33;4.72;;;2.78;;
37288;SDS011;23174;49.462;11.000;2022-11-15T10:53:43;3.00;;;2.70;;
37288;SDS011;23174;49.462;11.000;2022-11-15T10:55:46;6.43;;;2.80;;
37288;SDS011;23174;49.462;11.000;2022-11-15T10:57:50;3.03;;;2.70;;
37288;SDS011;23174;49.462;11.000;2022-11-15T10:59:54;4.95;;;2.33;;
37288;SDS011;23174;49.462;11.000;2022-11-15T11:01:57;2.88;;;2.67;;
37288;SDS011;23174;49.462;11.000;2022-11-15T11:03:59;4.40;;;2.88;;
37288;SDS011;23174;49.462;11.000;2022-11-15T11:06:33;4.00;;;2.92;;
37288;SDS011;23174;49.462;11.000;2022-11-15T11:08:27;2.72;;;2.53;;
37288;SDS011;23174;49.462;11.000;2022-11-15T11:10:28;3.47;;;2.80;;
37288;SDS011;23174;49.462;11.000;2022-11-15T11:12:30;2.55;;;2.35;;
37288;SDS011;23174;49.462;11.000;2022-11-15T11:14:34;2.83;;;2.50;;
37288;SDS011;23174;49.462;11.000;2022-11-15T11:23:55;2.70;;;2.50;;
37288;SDS011;23174;49.462;11.000;2022-11-15T11:31:20;2.10;;;1.98;;
37288;SDS011;23174;49.462;11.000;2022-11-15T11:38:00;2.15;;;1.92;;
37288;SDS011;23174;49.462;11.000;2022-11-15T11:40:40;2.95;;;2.20;;
37288;SDS011;23174;49.462;11.000;2022-11-15T11:42:50;3.38;;;2.00;;
37288;SDS011;23174;49.462;11.000;2022-11-15T11:47:15;4.30;;;1.77;;
37288;SDS011;23174;49.462;11.000;2022-11-15T11:49:26;3.15;;;1.45;;
37288;SDS011;23174;49.462;11.000;2022-11-15T11:51:34;2.47;;;2.25;;
37288;SDS011;23174;49.462;11.000;2022-11-15T11:53:57;2.80;;;2.30;;
37288;SDS011;23174;49.462;11.000;2022-11-15T11:56:29;2.47;;;2.28;;
37288;SDS011;23174;49.462;11.000;2022-11-15T11:58:40;1.90;;;1.80;;
37288;SDS011;23174;49.462;11.000;2022-11-15T12:00:52;3.65;;;1.77;;
37288;SDS011;23174;49.462;11.000;2022-11-15T12:03:08;2.20;;;2.05;;
37288;SDS011;23174;49.462;11.000;2022-11-15T12:07:37;2.00;;;1.65;;
37288;SDS011;23174;49.462;11.000;2022-11-15T12:09:50;1.80;;;1.70;;
37288;SDS011;23174;49.462;11.000;2022-11-15T12:12:01;9.68;;;2.00;;
37288;SDS011;23174;49.462;11.000;2022-11-15T12:14:08;2.08;;;1.83;;
37288;SDS011;23174;49.462;11.000;2022-11-15T12:16:22;4.15;;;1.90;;
37288;SDS011;23174;49.462;11.000;2022-11-15T12:18:28;2.00;;;1.85;;
37288;SDS011;23174;49.462;11.000;2022-11-15T12:20:32;3.25;;;1.90;;
37288;SDS011;23174;49.462;11.000;2022-11-15T12:29:20;1.88;;;1.77;;
37288;SDS011;23174;49.462;11.000;2022-11-15T12:33:39;2.22;;;1.70;;
37288;SDS011;23174;49.462;11.000;2022-11-15T12:35:42;1.30;;;0.95;;
37288;SDS011;23174;49.462;11.000;2022-11-15T12:38:48;12.90;;;1.75;;
37288;SDS011;23174;49.462;11.000;2022-11-15T12:40:23;9.23;;;1.50;;
37288;SDS011;23174;49.462;11.000;2022-11-15T12:43:01;5.68;;;1.48;;
37288;SDS011;23174;49.462;11.000;2022-11-15T12:45:23;4.90;;;1.50;;
37288;SDS011;23174;49.462;11.000;2022-11-15T12:47:32;1.13;;;0.90;;
37288;SDS011;23174;49.462;11.000;2022-11-15T12:53:42;3.53;;;1.20;;
37288;SDS011;23174;49.462;11.000;2022-11-15T12:55:43;1.67;;;1.42;;
37288;SDS011;23174;49.462;11.000;2022-11-15T12:58:19;3.83;;;1.25;;
37288;SDS011;23174;49.462;11.000;2022-11-15T13:02:31;2.47;;;1.42;;
37288;SDS011;23174;49.462;11.000;2022-11-15T13:04:39;3.85;;;1.15;;
37288;SDS011;23174;49.462;11.000;2022-11-15T13:06:44;0.63;;;0.63;;
37288;SDS011;23174;49.462;11.000;2022-11-15T13:08:45;0.47;;;0.47;;
37288;SDS011;23174;49.462;11.000;2022-11-15T13:10:48;1.13;;;1.08;;
37288;SDS011;23174;49.462;11.000;2022-11-15T13:12:49;0.55;;;0.55;;
37288;SDS011;23174;49.462;11.000;2022-11-15T13:16:58;1.00;;;0.20;;
37288;SDS011;23174;49.462;11.000;2022-11-15T13:18:59;0.47;;;0.43;;
37288;SDS011;23174;49.462;11.000;2022-11-15T13:21:02;0.50;;;0.50;;
37288;SDS011;23174;49.462;11.000;2022-11-15T13:23:24;0.28;;;0.28;;
37288;SDS011;23174;49.462;11.000;2022-11-15T13:27:56;0.60;;;0.60;;
37288;SDS011;23174;49.462;11.000;2022-11-15T13:29:57;0.10;;;0.10;;
37288;SDS011;23174;49.462;11.000;2022-11-15T13:31:58;4.13;;;0.50;;
37288;SDS011;23174;49.462;11.000;2022-11-15T13:34:00;1.10;;;0.90;;
37288;SDS011;23174;49.462;11.000;2022-11-15T13:36:05;3.83;;;0.73;;
37288;SDS011;23174;49.462;11.000;2022-11-15T13:40:39;0.90;;;0.90;;